This is the latest recevied weather packets stored in our database for station/object LRBV. If no packets are shown the sender has not sent any weather packets the latest 10 day(s).
| Time | Temp. | Humidity | Pressure | Rain* | Wind** | Luminosity | Snow |
|---|---|---|---|---|---|---|---|
| 1777364330 | 12.22° C | 41% | 1019 hPa | - | - | - | - |
| 1777363431 | 12.22° C | 41% | 1019 hPa | - | - | - | - |
| 1777362530 | 10° C | 47% | 1020 hPa | - | - | - | - |
| 1777361631 | 10° C | 47% | 1020 hPa | - | - | - | - |
| 1777360731 | 8.89° C | 54% | 1020 hPa | - | - | - | - |
| 1777359830 | 8.89° C | 54% | 1020 hPa | - | - | - | - |
| 1777358930 | 7.78° C | 62% | 1020 hPa | - | - | - | - |
| 1777358053 | 7.78° C | 62% | 1020 hPa | - | - | - | - |
| 1777357132 | 6.11° C | 66% | 1020 hPa | - | - | - | - |
| 1777356231 | 6.11° C | 66% | 1020 hPa | - | - | - | - |
| 1777355356 | 5° C | 70% | 1020 hPa | - | - | - | - |
| 1777354431 | 5° C | 70% | 1020 hPa | - | - | - | - |
| 1777353550 | 2.78° C | 81% | 1020 hPa | - | - | - | - |
| 1777352640 | 2.78° C | 81% | 1020 hPa | - | - | - | - |
| 1777351730 | 2.22° C | 81% | 1020 hPa | - | - | - | - |
| 1777350912 | 2.22° C | 81% | 1020 hPa | - | - | - | - |
| 1777349927 | 1.11° C | 87% | 1019 hPa | - | - | - | - |
| 1777349031 | 1.11° C | 87% | 1019 hPa | - | - | - | - |
| 1777348130 | 1.11° C | 81% | 1019 hPa | - | - | - | - |
| 1777347231 | 1.11° C | 81% | 1019 hPa | - | - | - | - |
| 1777346331 | 1.11° C | 81% | 1019 hPa | - | - | - | - |
| 1777345434 | 1.11° C | 81% | 1019 hPa | - | - | - | - |
| 1777344530 | 2.22° C | 75% | 1019 hPa | - | - | - | - |
| 1777343630 | 2.22° C | 75% | 1019 hPa | - | - | - | - |
| 1777342727 | 1.11° C | 87% | 1019 hPa | - | - | - | - |
* Rain since midnight (hover to see other rain measurements)
** Current wind speed in m/s (hover to see current wind gust speed)